createdAt,value
2023-10-30T00:00:52.173Z,31.10
2023-10-30T00:02:54.077Z,31.10
2023-10-30T00:04:55.906Z,31.10
2023-10-30T00:06:57.779Z,31.10
2023-10-30T00:08:59.709Z,31.10
2023-10-30T00:11:01.497Z,31.00
2023-10-30T00:13:03.415Z,31.00
2023-10-30T00:15:06.209Z,30.90
2023-10-30T00:17:07.969Z,30.90
2023-10-30T00:19:09.704Z,31.00
2023-10-30T00:21:11.586Z,31.00
2023-10-30T00:23:13.323Z,31.00
2023-10-30T00:25:15.125Z,31.10
2023-10-30T00:27:17.522Z,31.10
2023-10-30T00:29:19.633Z,31.00
2023-10-30T00:31:21.467Z,31.10
2023-10-30T00:33:23.380Z,31.00
2023-10-30T00:35:25.998Z,31.00
2023-10-30T00:37:28.997Z,31.00
2023-10-30T00:39:33.213Z,30.90
2023-10-30T00:41:34.980Z,31.00
2023-10-30T00:43:36.773Z,31.00
2023-10-30T00:45:39.392Z,31.10
2023-10-30T00:47:41.852Z,31.10
2023-10-30T00:49:43.605Z,31.10
2023-10-30T00:51:45.647Z,31.10
2023-10-30T00:53:47.477Z,31.10
2023-10-30T00:55:52.326Z,31.10
2023-10-30T00:57:54.044Z,31.10
2023-10-30T00:59:55.798Z,31.00
2023-10-30T01:01:57.573Z,31.00
2023-10-30T01:04:00.270Z,30.90
2023-10-30T01:06:02.228Z,31.00
2023-10-30T01:08:09.543Z,31.00
2023-10-30T01:10:11.528Z,31.00
2023-10-30T01:12:13.387Z,31.10
2023-10-30T01:14:15.321Z,31.10
2023-10-30T01:16:17.230Z,31.10
2023-10-30T01:18:19.006Z,31.10
2023-10-30T01:20:20.950Z,31.10
2023-10-30T01:22:22.684Z,31.00
2023-10-30T01:24:24.497Z,31.00
2023-10-30T01:26:26.345Z,30.90
2023-10-30T01:28:28.067Z,30.90
2023-10-30T01:30:29.906Z,30.90
2023-10-30T01:32:31.709Z,31.00
2023-10-30T01:34:33.538Z,31.10
2023-10-30T01:36:35.499Z,31.10
2023-10-30T01:38:37.367Z,31.10
2023-10-30T01:40:46.539Z,31.10
2023-10-30T01:42:48.278Z,31.10
2023-10-30T01:44:59.595Z,31.00
2023-10-30T01:47:01.344Z,31.00
2023-10-30T01:49:03.135Z,31.00
2023-10-30T01:51:05.865Z,31.00
2023-10-30T01:53:07.688Z,30.90
2023-10-30T01:55:09.773Z,31.00
2023-10-30T01:57:12.130Z,31.10
2023-10-30T01:59:14.391Z,31.10
2023-10-30T02:01:16.379Z,31.10
2023-10-30T02:03:18.515Z,31.10
2023-10-30T02:05:20.448Z,31.10
2023-10-30T02:07:22.283Z,31.10
2023-10-30T02:09:24.912Z,31.10
2023-10-30T02:11:26.728Z,31.00
2023-10-30T02:13:28.593Z,30.90
2023-10-30T02:15:30.381Z,30.90
2023-10-30T02:17:32.195Z,30.90
2023-10-30T02:19:34.027Z,31.00
2023-10-30T02:21:35.934Z,31.00
2023-10-30T02:23:37.671Z,31.10
2023-10-30T02:25:39.380Z,31.10
2023-10-30T02:27:41.188Z,31.10
2023-10-30T02:29:43.085Z,31.10
2023-10-30T02:31:44.818Z,31.10
2023-10-30T02:33:46.600Z,31.00
2023-10-30T02:35:48.329Z,31.00
2023-10-30T02:37:50.101Z,31.00
2023-10-30T02:39:51.989Z,31.00
2023-10-30T02:41:54.006Z,31.00
2023-10-30T02:43:56.157Z,31.00
2023-10-30T02:45:58.269Z,31.00
2023-10-30T02:48:00.148Z,31.10
2023-10-30T02:50:04.917Z,31.10
2023-10-30T02:52:06.678Z,31.10
2023-10-30T02:54:08.427Z,31.10
2023-10-30T02:56:10.368Z,31.10
2023-10-30T02:58:12.174Z,31.00
2023-10-30T03:00:13.987Z,31.00
2023-10-30T03:02:15.694Z,31.00
2023-10-30T03:04:18.456Z,31.00
2023-10-30T03:06:20.716Z,30.90
2023-10-30T03:08:22.427Z,31.00
2023-10-30T03:10:24.196Z,31.00
2023-10-30T03:12:25.922Z,31.10
2023-10-30T03:14:27.789Z,31.10
2023-10-30T03:16:30.002Z,31.10
2023-10-30T03:18:32.003Z,31.10
2023-10-30T03:20:33.824Z,31.00
2023-10-30T03:22:35.615Z,31.00
2023-10-30T03:24:37.453Z,30.90
2023-10-30T03:26:39.384Z,31.00
2023-10-30T03:28:41.216Z,30.90
2023-10-30T03:30:42.927Z,31.00
2023-10-30T03:32:44.708Z,31.00
2023-10-30T03:34:46.483Z,31.00
2023-10-30T03:36:48.292Z,31.10
2023-10-30T03:38:51.824Z,31.10
2023-10-30T03:40:53.828Z,31.10
2023-10-30T03:42:55.602Z,31.10
2023-10-30T03:44:57.438Z,31.10
2023-10-30T03:46:59.363Z,31.00
2023-10-30T03:49:01.256Z,30.90
2023-10-30T03:51:04.095Z,30.90
2023-10-30T03:53:06.180Z,30.90
2023-10-30T03:55:08.264Z,31.00
2023-10-30T03:57:10.061Z,31.00
2023-10-30T03:59:12.164Z,31.10
2023-10-30T04:01:13.969Z,31.00
2023-10-30T04:03:15.798Z,31.10
2023-10-30T04:05:17.606Z,31.10
2023-10-30T04:07:19.349Z,31.10
2023-10-30T04:09:21.076Z,31.10
2023-10-30T04:11:22.861Z,31.00
2023-10-30T04:13:24.659Z,31.00
2023-10-30T04:15:26.511Z,31.00
2023-10-30T04:17:28.360Z,30.90
2023-10-30T04:19:30.244Z,31.00
2023-10-30T04:21:32.152Z,31.00
2023-10-30T04:23:34.131Z,31.10
2023-10-30T04:25:35.895Z,31.10
2023-10-30T04:27:37.589Z,31.10
2023-10-30T04:29:39.456Z,31.10
2023-10-30T04:31:41.251Z,31.10
2023-10-30T04:33:43.064Z,31.10
2023-10-30T04:35:44.778Z,31.00
2023-10-30T04:37:46.533Z,31.00
2023-10-30T04:39:48.658Z,31.00
2023-10-30T04:41:50.487Z,31.00
2023-10-30T04:43:52.182Z,31.00
2023-10-30T04:45:54.026Z,31.00
2023-10-30T04:47:55.884Z,31.10
2023-10-30T04:49:57.683Z,31.10
2023-10-30T04:51:59.407Z,31.10
2023-10-30T04:54:01.126Z,31.10
2023-10-30T04:56:03.405Z,31.10
2023-10-30T04:58:05.635Z,31.00
2023-10-30T05:00:08.473Z,31.00
2023-10-30T05:02:10.332Z,30.90
2023-10-30T05:04:12.292Z,31.00
2023-10-30T05:06:14.366Z,30.90
2023-10-30T05:08:16.451Z,31.00
2023-10-30T05:10:18.196Z,31.00
2023-10-30T05:12:21.552Z,31.00
2023-10-30T05:14:23.539Z,31.10
2023-10-30T05:16:25.448Z,31.10
2023-10-30T05:18:29.765Z,31.10
2023-10-30T05:20:31.603Z,31.00
2023-10-30T05:22:33.916Z,31.00
2023-10-30T05:24:35.663Z,30.90
2023-10-30T05:26:38.096Z,30.90
2023-10-30T05:30:46.742Z,31.00
2023-10-30T05:34:55.182Z,31.00
2023-10-30T05:36:56.929Z,31.10
2023-10-30T05:38:58.610Z,31.10
2023-10-30T05:41:00.314Z,31.10
2023-10-30T05:43:02.006Z,31.10
2023-10-30T05:45:03.936Z,31.10
2023-10-30T05:47:05.836Z,31.00
2023-10-30T05:49:07.583Z,31.00
2023-10-30T05:51:09.345Z,30.90
2023-10-30T05:53:11.083Z,31.00
2023-10-30T05:55:14.118Z,31.00
2023-10-30T05:57:16.653Z,31.00
2023-10-30T05:59:18.705Z,31.00
2023-10-30T06:01:20.482Z,31.10
2023-10-30T06:03:22.310Z,31.10
2023-10-30T06:05:24.224Z,31.10
2023-10-30T06:07:26.026Z,31.10
2023-10-30T06:09:28.284Z,31.00
2023-10-30T06:11:30.108Z,31.00
2023-10-30T06:13:31.854Z,31.00
2023-10-30T06:15:33.627Z,30.90
2023-10-30T06:17:36.379Z,31.00
2023-10-30T06:19:38.267Z,31.10
2023-10-30T06:21:40.377Z,31.10
2023-10-30T06:23:42.239Z,31.10
2023-10-30T06:25:45.704Z,31.10
2023-10-30T06:27:47.657Z,31.10
2023-10-30T06:29:51.040Z,31.10
2023-10-30T06:31:54.108Z,31.00
2023-10-30T06:33:57.057Z,31.10
2023-10-30T06:36:01.468Z,31.00
2023-10-30T06:38:03.338Z,31.00
2023-10-30T06:40:05.747Z,31.00
2023-10-30T06:42:07.639Z,31.00
2023-10-30T06:44:09.498Z,31.00
2023-10-30T06:46:11.371Z,31.10
2023-10-30T06:48:13.093Z,31.10
2023-10-30T06:50:14.842Z,31.10
2023-10-30T06:52:16.551Z,31.10
2023-10-30T06:54:18.296Z,31.10
2023-10-30T06:56:20.117Z,31.00
2023-10-30T06:58:24.837Z,31.10
2023-10-30T07:00:28.250Z,31.00
2023-10-30T07:02:30.932Z,31.00
2023-10-30T07:04:33.261Z,31.00
2023-10-30T07:06:35.182Z,31.10
2023-10-30T07:08:36.933Z,31.10
2023-10-30T07:10:38.747Z,31.10
2023-10-30T07:12:40.535Z,31.10
2023-10-30T07:14:42.398Z,31.10
2023-10-30T07:17:00.699Z,31.10
2023-10-30T07:19:06.467Z,31.10
2023-10-30T07:21:08.235Z,31.10
2023-10-30T07:23:09.937Z,31.00
2023-10-30T07:25:12.401Z,31.00
2023-10-30T07:27:16.333Z,31.00
2023-10-30T07:29:19.542Z,31.00
2023-10-30T07:31:21.886Z,31.00
2023-10-30T07:33:23.618Z,31.10
2023-10-30T07:35:25.380Z,31.10
2023-10-30T07:37:28.106Z,31.10
2023-10-30T07:39:29.841Z,31.10
2023-10-30T07:41:31.584Z,31.10
2023-10-30T07:43:33.331Z,31.20
2023-10-30T07:45:40.208Z,31.10
2023-10-30T07:47:44.808Z,31.10
2023-10-30T07:49:46.922Z,31.10
2023-10-30T07:51:48.842Z,31.10
2023-10-30T07:53:50.623Z,31.10
2023-10-30T07:55:52.386Z,31.10
2023-10-30T07:57:54.515Z,31.10
2023-10-30T07:59:56.258Z,31.10
2023-10-30T08:01:58.165Z,31.10
2023-10-30T08:04:00.942Z,31.10
2023-10-30T08:06:02.937Z,31.10
2023-10-30T08:08:04.827Z,31.10
2023-10-30T08:10:07.346Z,31.10
2023-10-30T08:12:09.192Z,31.10
2023-10-30T08:14:10.975Z,31.10
2023-10-30T08:16:12.784Z,31.00
2023-10-30T08:18:14.595Z,31.00
2023-10-30T08:20:17.182Z,31.00
2023-10-30T08:22:19.152Z,31.10
2023-10-30T08:24:20.875Z,31.10
2023-10-30T08:26:22.759Z,31.10
2023-10-30T08:28:24.490Z,31.10
2023-10-30T08:30:26.436Z,31.10
2023-10-30T08:32:28.496Z,31.10
2023-10-30T08:34:30.288Z,31.10
2023-10-30T08:36:32.135Z,31.10
2023-10-30T08:38:33.896Z,31.10
2023-10-30T08:40:36.246Z,31.10
2023-10-30T08:42:38.094Z,31.20
2023-10-30T08:44:39.854Z,31.20
2023-10-30T08:46:41.665Z,31.20
2023-10-30T08:48:46.576Z,31.30
2023-10-30T08:50:48.537Z,31.40
2023-10-30T08:52:50.343Z,31.40
2023-10-30T08:54:52.227Z,31.40
2023-10-30T08:56:58.377Z,31.30
2023-10-30T08:59:06.417Z,31.40
2023-10-30T09:01:08.763Z,31.30
2023-10-30T09:03:10.531Z,31.30
2023-10-30T09:05:12.523Z,31.30
2023-10-30T09:07:14.422Z,31.40
2023-10-30T09:09:16.468Z,31.40
2023-10-30T09:11:18.261Z,31.50
2023-10-30T09:13:20.021Z,31.50
2023-10-30T09:15:21.810Z,31.50
2023-10-30T09:17:23.564Z,31.50
2023-10-30T09:19:25.276Z,31.50
2023-10-30T09:21:27.165Z,31.50
2023-10-30T09:23:29.020Z,31.50
2023-10-30T09:25:30.770Z,31.50
2023-10-30T09:27:33.263Z,31.50
2023-10-30T09:29:35.292Z,31.40
2023-10-30T09:31:37.205Z,31.50
2023-10-30T09:33:38.983Z,31.50
2023-10-30T09:35:43.552Z,31.60
2023-10-30T09:37:45.269Z,31.60
2023-10-30T09:39:48.481Z,31.60
2023-10-30T09:41:50.955Z,31.50
2023-10-30T09:43:53.091Z,31.40
2023-10-30T09:45:57.579Z,31.30
2023-10-30T09:47:59.532Z,31.30
2023-10-30T09:50:01.567Z,31.40
2023-10-30T09:52:05.239Z,31.50
2023-10-30T09:54:07.951Z,31.50
2023-10-30T09:56:09.895Z,31.60
2023-10-30T09:58:11.969Z,31.50
2023-10-30T10:00:13.887Z,31.60
2023-10-30T10:02:16.448Z,31.50
2023-10-30T10:04:18.560Z,31.40
2023-10-30T10:06:21.016Z,31.30
2023-10-30T10:08:23.656Z,31.30
2023-10-30T10:10:25.843Z,31.40
2023-10-30T10:12:29.576Z,31.40
2023-10-30T10:14:32.161Z,31.50
2023-10-30T10:16:35.833Z,31.50
2023-10-30T10:18:37.627Z,31.60
2023-10-30T10:20:55.114Z,31.60
2023-10-30T10:22:56.831Z,31.60
2023-10-30T10:25:00.376Z,31.60
2023-10-30T10:27:03.943Z,31.50
2023-10-30T10:29:05.756Z,31.50
2023-10-30T10:31:07.569Z,31.40
2023-10-30T10:33:09.384Z,31.40
2023-10-30T10:35:12.093Z,31.50
2023-10-30T10:37:20.684Z,31.50
2023-10-30T10:39:22.480Z,31.60
2023-10-30T10:41:25.987Z,31.60
2023-10-30T10:43:28.316Z,31.50
2023-10-30T10:45:31.923Z,31.50
2023-10-30T10:47:33.937Z,31.50
2023-10-30T10:49:35.750Z,31.40
2023-10-30T10:51:38.703Z,31.30
2023-10-30T10:53:40.815Z,31.30
2023-10-30T10:55:43.701Z,31.30
2023-10-30T10:57:50.994Z,31.40
2023-10-30T10:59:59.525Z,31.50
2023-10-30T11:02:02.247Z,31.50
2023-10-30T11:04:05.016Z,31.50
2023-10-30T11:06:07.583Z,31.50
2023-10-30T11:08:12.562Z,31.50
2023-10-30T11:10:18.612Z,31.50
2023-10-30T11:12:20.485Z,31.40
2023-10-30T11:14:43.124Z,31.40
2023-10-30T11:16:54.313Z,31.30
2023-10-30T11:18:59.807Z,31.40
2023-10-30T11:21:12.733Z,31.50
2023-10-30T11:23:34.469Z,31.50
2023-10-30T11:25:48.082Z,31.60
2023-10-30T11:27:50.879Z,31.60
2023-10-30T11:30:13.149Z,31.50
2023-10-30T11:32:16.268Z,31.50
2023-10-30T11:34:18.186Z,31.50
2023-10-30T11:36:20.465Z,31.40
2023-10-30T11:38:22.242Z,31.30
2023-10-30T11:40:25.041Z,31.30
2023-10-30T11:42:27.555Z,31.40
2023-10-30T11:44:30.705Z,31.40
2023-10-30T11:46:37.722Z,31.50
2023-10-30T11:48:39.568Z,31.60
2023-10-30T11:50:44.876Z,31.60
2023-10-30T11:52:49.805Z,31.50
2023-10-30T11:54:51.773Z,31.50
2023-10-30T11:56:54.900Z,31.40
2023-10-30T11:58:57.327Z,31.30
2023-10-30T12:00:59.471Z,31.30
2023-10-30T12:03:01.486Z,31.30
2023-10-30T12:05:07.291Z,31.40
2023-10-30T12:07:09.731Z,31.40
2023-10-30T12:09:11.430Z,31.50
2023-10-30T12:11:13.219Z,31.50
2023-10-30T12:13:15.034Z,31.50
2023-10-30T12:15:17.112Z,31.50
2023-10-30T12:17:20.028Z,31.50
2023-10-30T12:19:24.847Z,31.40
2023-10-30T12:21:26.898Z,31.30
2023-10-30T12:23:30.508Z,31.30
2023-10-30T12:25:32.276Z,31.30
2023-10-30T12:27:34.791Z,31.40
2023-10-30T12:29:36.557Z,31.40
2023-10-30T12:31:38.443Z,31.50
2023-10-30T12:33:40.486Z,31.60
2023-10-30T12:35:43.799Z,31.50
2023-10-30T12:37:45.599Z,31.60
2023-10-30T12:40:00.428Z,31.50
2023-10-30T12:42:02.156Z,31.40
2023-10-30T12:44:03.971Z,31.50
2023-10-30T12:46:06.892Z,31.30
2023-10-30T12:48:08.866Z,31.30
2023-10-30T12:50:11.291Z,31.40
2023-10-30T12:52:14.569Z,31.40
2023-10-30T12:54:16.296Z,31.50
2023-10-30T12:56:17.990Z,31.50
2023-10-30T12:58:21.485Z,31.50
2023-10-30T13:00:23.206Z,31.50
2023-10-30T13:02:25.274Z,31.50
2023-10-30T13:04:29.589Z,31.40
2023-10-30T13:06:31.894Z,31.40
2023-10-30T13:08:33.892Z,31.30
2023-10-30T13:10:35.589Z,31.30
2023-10-30T13:12:37.516Z,31.30
2023-10-30T13:14:39.546Z,31.40
2023-10-30T13:16:42.955Z,31.40
2023-10-30T13:18:44.703Z,31.40
2023-10-30T13:20:46.410Z,31.40
2023-10-30T13:22:48.538Z,31.50
2023-10-30T13:24:50.865Z,31.50
2023-10-30T13:26:53.011Z,31.40
2023-10-30T13:28:54.713Z,31.40
2023-10-30T13:30:56.718Z,31.30
2023-10-30T13:32:58.893Z,31.30
2023-10-30T13:35:01.182Z,31.30
2023-10-30T13:37:03.061Z,31.30
2023-10-30T13:39:04.910Z,31.30
2023-10-30T13:41:09.102Z,31.40
2023-10-30T13:43:11.318Z,31.40
2023-10-30T13:45:13.181Z,31.40
2023-10-30T13:47:15.918Z,31.40
2023-10-30T13:49:18.777Z,31.40
2023-10-30T13:51:20.754Z,31.30
2023-10-30T13:53:22.480Z,31.30
2023-10-30T13:55:24.207Z,31.20
2023-10-30T13:57:26.059Z,31.20
2023-10-30T13:59:27.841Z,31.20
2023-10-30T14:01:29.706Z,31.30
2023-10-30T14:03:31.619Z,31.30
2023-10-30T14:05:33.529Z,31.30
2023-10-30T14:07:35.395Z,31.40
2023-10-30T14:09:37.142Z,31.40
2023-10-30T14:11:39.150Z,31.40
2023-10-30T14:13:41.149Z,31.30
2023-10-30T14:15:43.022Z,31.30
2023-10-30T14:17:44.820Z,31.30
2023-10-30T14:19:46.685Z,31.20
2023-10-30T14:21:48.497Z,31.30
2023-10-30T14:23:50.463Z,31.30
2023-10-30T14:25:52.151Z,31.40
2023-10-30T14:27:53.921Z,31.30
2023-10-30T14:29:55.651Z,31.40
2023-10-30T14:31:57.405Z,31.40
2023-10-30T14:33:59.751Z,31.40
2023-10-30T14:36:01.815Z,31.40
2023-10-30T14:38:03.539Z,31.40
2023-10-30T14:40:06.262Z,31.30
2023-10-30T14:42:11.326Z,31.20
2023-10-30T14:44:13.189Z,31.20
2023-10-30T14:46:16.304Z,31.30
2023-10-30T14:48:18.145Z,31.40
2023-10-30T14:50:20.726Z,31.40
2023-10-30T14:52:22.568Z,31.40
2023-10-30T14:54:24.299Z,31.40
2023-10-30T14:56:26.067Z,31.40
2023-10-30T14:58:27.968Z,31.40
2023-10-30T15:00:29.901Z,31.30
2023-10-30T15:02:32.657Z,31.30
2023-10-30T15:04:34.637Z,31.30
2023-10-30T15:06:36.452Z,31.30
2023-10-30T15:08:39.335Z,31.30
2023-10-30T15:10:41.096Z,31.40
2023-10-30T15:12:42.877Z,31.40
2023-10-30T15:14:44.605Z,31.40
2023-10-30T15:16:46.427Z,31.40
2023-10-30T15:18:48.763Z,31.40
2023-10-30T15:20:50.575Z,31.40
2023-10-30T15:22:52.416Z,31.30
2023-10-30T15:24:54.226Z,31.30
2023-10-30T15:26:55.914Z,31.30
2023-10-30T15:28:57.610Z,31.20
2023-10-30T15:30:59.379Z,31.30
2023-10-30T15:33:01.105Z,31.30
2023-10-30T15:35:03.804Z,31.30
2023-10-30T15:37:05.682Z,31.30
2023-10-30T15:39:07.631Z,31.30
2023-10-30T15:41:09.378Z,31.40
2023-10-30T15:43:11.176Z,31.40
2023-10-30T15:45:13.154Z,31.40
2023-10-30T15:47:24.728Z,31.30
2023-10-30T15:49:27.329Z,31.30
2023-10-30T15:51:29.166Z,31.30
2023-10-30T15:57:36.565Z,31.40
2023-10-30T15:59:39.297Z,31.40
2023-10-30T16:01:41.167Z,31.50
2023-10-30T16:03:43.151Z,31.50
2023-10-30T16:06:04.651Z,31.40
2023-10-30T16:08:06.744Z,31.50
2023-10-30T16:10:28.541Z,31.40
2023-10-30T16:12:30.502Z,31.30
2023-10-30T16:14:33.845Z,31.30
2023-10-30T16:16:36.428Z,31.30
2023-10-30T16:18:56.529Z,31.40
2023-10-30T16:21:16.511Z,31.40
2023-10-30T16:23:18.912Z,31.50
2023-10-30T16:25:20.711Z,31.50
2023-10-30T16:27:22.424Z,31.50
2023-10-30T16:29:24.195Z,31.50
2023-10-30T16:31:26.007Z,31.50
2023-10-30T16:33:27.698Z,31.60
2023-10-30T16:35:30.614Z,31.50
2023-10-30T16:37:32.356Z,31.40
2023-10-30T16:39:35.101Z,31.40
2023-10-30T16:41:37.576Z,31.40
2023-10-30T16:43:39.634Z,31.50
2023-10-30T16:45:41.465Z,31.50
2023-10-30T16:47:43.603Z,31.50
2023-10-30T16:49:45.421Z,31.60
2023-10-30T16:51:47.208Z,31.60
2023-10-30T16:53:49.018Z,31.50
2023-10-30T16:55:51.249Z,31.50
2023-10-30T16:57:53.043Z,31.40
2023-10-30T16:59:54.886Z,31.30
2023-10-30T17:01:56.693Z,31.30
2023-10-30T17:03:58.459Z,31.40
2023-10-30T17:06:00.291Z,31.40
2023-10-30T17:08:01.995Z,31.50
2023-10-30T17:10:03.881Z,31.60
2023-10-30T17:12:06.076Z,31.60
2023-10-30T17:14:07.923Z,31.60
2023-10-30T17:16:09.748Z,31.50
2023-10-30T17:18:11.635Z,31.50
2023-10-30T17:20:13.364Z,31.50
2023-10-30T17:22:15.639Z,31.40
2023-10-30T17:24:17.459Z,31.40
2023-10-30T17:26:19.213Z,31.40
2023-10-30T17:28:20.987Z,31.50
2023-10-30T17:30:23.174Z,31.60
2023-10-30T17:32:24.913Z,31.60
2023-10-30T17:34:26.669Z,31.60
2023-10-30T17:36:28.517Z,31.60
2023-10-30T17:38:30.245Z,31.60
2023-10-30T17:40:32.138Z,31.60
2023-10-30T17:42:33.984Z,31.50
2023-10-30T17:44:35.760Z,31.50
2023-10-30T17:46:37.528Z,31.40
2023-10-30T17:48:39.343Z,31.40
2023-10-30T17:50:41.089Z,31.40
2023-10-30T17:52:43.071Z,31.40
2023-10-30T17:54:44.899Z,31.60
2023-10-30T17:56:46.916Z,31.60
2023-10-30T17:58:48.664Z,31.50
2023-10-30T18:00:50.443Z,31.60
2023-10-30T18:02:52.339Z,31.50
2023-10-30T18:04:54.201Z,31.40
2023-10-30T18:06:55.940Z,31.40
2023-10-30T18:08:57.871Z,31.30
2023-10-30T18:10:59.595Z,31.30
2023-10-30T18:13:01.388Z,31.30
2023-10-30T18:15:03.426Z,31.30
2023-10-30T18:17:05.115Z,31.40
2023-10-30T18:19:07.014Z,31.40
2023-10-30T18:21:08.771Z,31.40
2023-10-30T18:23:10.837Z,31.40
2023-10-30T18:25:12.621Z,31.40
2023-10-30T18:27:14.333Z,31.40
2023-10-30T18:29:18.392Z,31.30
2023-10-30T18:31:21.176Z,31.30
2023-10-30T18:33:24.113Z,31.20
2023-10-30T18:35:25.948Z,31.30
2023-10-30T18:37:28.768Z,31.30
2023-10-30T18:39:30.640Z,31.30
2023-10-30T18:41:32.660Z,31.40
2023-10-30T18:43:34.402Z,31.40
2023-10-30T18:45:36.158Z,31.40
2023-10-30T18:47:37.879Z,31.40
2023-10-30T18:49:40.109Z,31.30
2023-10-30T18:51:43.826Z,31.30
2023-10-30T18:53:45.580Z,31.20
2023-10-30T18:55:47.430Z,31.20
2023-10-30T18:57:49.211Z,31.20
2023-10-30T18:59:51.159Z,31.20
2023-10-30T19:01:53.286Z,31.30
2023-10-30T19:03:56.230Z,31.30
2023-10-30T19:05:59.104Z,31.30
2023-10-30T19:08:01.677Z,31.30
2023-10-30T19:10:03.568Z,31.30
2023-10-30T19:12:05.531Z,31.30
2023-10-30T19:14:07.318Z,31.30
2023-10-30T19:16:09.256Z,31.20
2023-10-30T19:18:11.142Z,31.20
2023-10-30T19:20:12.929Z,31.20
2023-10-30T19:22:15.420Z,31.20
2023-10-30T19:24:17.456Z,31.30
2023-10-30T19:26:19.246Z,31.30
2023-10-30T19:28:20.987Z,31.40
2023-10-30T19:30:22.779Z,31.40
2023-10-30T19:32:24.689Z,31.40
2023-10-30T19:34:26.710Z,31.30
2023-10-30T19:36:28.796Z,31.30
2023-10-30T19:38:32.200Z,31.30
2023-10-30T19:40:34.026Z,31.20
2023-10-30T19:42:36.095Z,31.10
2023-10-30T19:44:37.862Z,31.20
2023-10-30T19:46:41.309Z,31.20
2023-10-30T19:48:43.344Z,31.20
2023-10-30T19:50:45.095Z,31.30
2023-10-30T19:52:47.572Z,31.30
2023-10-30T19:58:57.851Z,31.30
2023-10-30T20:00:59.580Z,31.20
2023-10-30T20:03:01.794Z,31.20
2023-10-30T20:05:03.697Z,31.20
2023-10-30T20:07:05.476Z,31.10
2023-10-30T20:09:07.789Z,31.20
2023-10-30T20:11:09.519Z,31.20
2023-10-30T20:13:11.333Z,31.20
2023-10-30T20:15:13.083Z,31.30
2023-10-30T20:23:29.834Z,31.20
2023-10-30T20:25:33.459Z,31.20
2023-10-30T20:27:35.390Z,31.10
2023-10-30T20:31:45.022Z,31.10
2023-10-30T20:33:47.973Z,31.20
2023-10-30T20:35:49.848Z,31.20
2023-10-30T20:37:51.587Z,31.30
2023-10-30T20:39:53.375Z,31.20
2023-10-30T20:41:55.108Z,31.20
2023-10-30T20:43:56.988Z,31.20
2023-10-30T20:45:58.783Z,31.20
2023-10-30T20:48:00.609Z,31.10
2023-10-30T20:50:02.406Z,31.10
2023-10-30T20:52:04.313Z,31.00
2023-10-30T20:54:06.165Z,31.00
2023-10-30T20:56:08.042Z,31.10
2023-10-30T20:58:09.745Z,31.20
2023-10-30T21:00:11.692Z,31.20
2023-10-30T21:02:13.548Z,31.20
2023-10-30T21:04:15.276Z,31.20
2023-10-30T21:06:16.992Z,31.20
2023-10-30T21:08:18.830Z,31.20
2023-10-30T21:10:20.592Z,31.20
2023-10-30T21:12:22.429Z,31.10
2023-10-30T21:14:24.169Z,31.00
2023-10-30T21:16:26.033Z,31.00
2023-10-30T21:18:28.363Z,31.10
2023-10-30T21:20:30.140Z,31.10
2023-10-30T21:22:32.706Z,31.20
2023-10-30T21:24:34.555Z,31.20
2023-10-30T21:26:36.424Z,31.20
2023-10-30T21:28:38.210Z,31.20
2023-10-30T21:30:40.050Z,31.20
2023-10-30T21:32:41.863Z,31.10
2023-10-30T21:34:43.624Z,31.00
2023-10-30T21:36:46.552Z,31.00
2023-10-30T21:38:48.369Z,31.00
2023-10-30T21:40:50.215Z,31.00
2023-10-30T21:42:52.012Z,31.10
2023-10-30T21:44:53.760Z,31.10
2023-10-30T21:46:55.570Z,31.20
2023-10-30T21:48:57.789Z,31.20
2023-10-30T21:50:59.594Z,31.20
2023-10-30T21:53:01.473Z,31.20
2023-10-30T21:55:03.525Z,31.20
2023-10-30T21:57:05.300Z,31.00
2023-10-30T21:59:07.045Z,31.00
2023-10-30T22:01:08.883Z,31.00
2023-10-30T22:03:10.748Z,31.00
2023-10-30T22:05:12.667Z,31.00
2023-10-30T22:07:14.466Z,31.10
2023-10-30T22:09:16.201Z,31.20
2023-10-30T22:11:17.947Z,31.20
2023-10-30T22:13:19.690Z,31.20
2023-10-30T22:15:23.409Z,31.20
2023-10-30T22:17:25.309Z,31.10
2023-10-30T22:19:27.227Z,31.00
2023-10-30T22:21:28.913Z,31.00
2023-10-30T22:23:30.663Z,31.00
2023-10-30T22:25:32.511Z,31.00
2023-10-30T22:27:34.268Z,31.00
2023-10-30T22:29:36.412Z,31.10
2023-10-30T22:31:38.153Z,31.20
2023-10-30T22:33:39.904Z,31.10
2023-10-30T22:35:41.729Z,31.10
2023-10-30T22:37:43.530Z,31.20
2023-10-30T22:39:45.255Z,31.10
2023-10-30T22:41:46.988Z,31.10
2023-10-30T22:43:49.080Z,31.00
2023-10-30T22:45:51.791Z,31.00
2023-10-30T22:47:53.604Z,31.00
2023-10-30T22:49:55.374Z,31.00
2023-10-30T22:51:57.192Z,31.00
2023-10-30T22:53:59.020Z,31.10
2023-10-30T22:56:00.759Z,31.10
2023-10-30T22:58:02.596Z,31.10
2023-10-30T23:00:05.178Z,31.10
2023-10-30T23:02:07.379Z,31.10
2023-10-30T23:04:09.398Z,31.10
2023-10-30T23:06:11.239Z,31.00
2023-10-30T23:08:13.078Z,31.00
2023-10-30T23:10:14.880Z,30.90
2023-10-30T23:12:16.610Z,31.00
2023-10-30T23:14:18.322Z,31.00
2023-10-30T23:16:20.200Z,31.00
2023-10-30T23:18:22.247Z,31.10
2023-10-30T23:20:25.342Z,31.10
2023-10-30T23:22:27.340Z,31.10
2023-10-30T23:24:29.115Z,31.10
2023-10-30T23:26:33.066Z,31.00
2023-10-30T23:28:34.848Z,31.00
2023-10-30T23:30:36.827Z,30.90
2023-10-30T23:32:38.648Z,30.90
2023-10-30T23:34:40.375Z,30.90
2023-10-30T23:36:42.069Z,31.00
2023-10-30T23:38:43.889Z,31.00
2023-10-30T23:40:45.671Z,31.00
2023-10-30T23:42:47.495Z,31.10
2023-10-30T23:44:49.275Z,31.20
2023-10-30T23:46:51.108Z,31.10
2023-10-30T23:48:52.892Z,31.00
2023-10-30T23:50:54.676Z,31.00
2023-10-30T23:52:57.136Z,31.00
2023-10-30T23:54:58.924Z,30.90
2023-10-30T23:57:00.812Z,30.90
2023-10-30T23:59:02.643Z,30.90
